Time;durP1;ratioP1;P1;durP2;ratioP2;P2;SDS_P1;SDS_P2;PMS_P1;PMS_P2;Temp;Humidity;BMP_temperature;BMP_pressure;BME280_temperature;BME280_humidity;BME280_pressure;Samples;Min_cycle;Max_cycle;Signal;HPM_P1;HPM_P2
2022/04/08 00:00:49;;;;;;;9.02;1.98;;;14.30;69.80;;;;;;4996509;28;20030;-67
2022/04/08 00:03:15;;;;;;;4.03;1.20;;;14.30;70.00;;;;;;4996717;28;20037;-64
2022/04/08 00:05:41;;;;;;;5.95;1.48;;;14.30;69.80;;;;;;4996522;28;20072;-56
2022/04/08 00:08:07;;;;;;;7.60;1.38;;;14.30;69.60;;;;;;4996196;28;20434;-54
2022/04/08 00:10:32;;;;;;;5.45;1.35;;;14.30;70.10;;;;;;4996569;28;20097;-55
2022/04/08 00:12:58;;;;;;;4.93;1.00;;;14.20;69.70;;;;;;4996322;28;20100;-67
2022/04/08 00:15:24;;;;;;;5.40;1.45;;;14.20;70.00;;;;;;4996456;28;20062;-53
2022/04/08 00:17:49;;;;;;;5.78;1.27;;;14.10;70.20;;;;;;4996385;28;20080;-68
2022/04/08 00:20:15;;;;;;;4.88;0.85;;;14.10;69.70;;;;;;4996294;28;20108;-54
2022/04/08 00:22:42;;;;;;;4.47;0.98;;;14.10;70.00;;;;;;4995708;28;20106;-53
2022/04/08 00:25:08;;;;;;;5.68;1.20;;;14.20;69.70;;;;;;4996566;28;20033;-54
2022/04/08 00:27:34;;;;;;;6.90;0.93;;;14.10;69.70;;;;;;4996197;28;20030;-64
2022/04/08 00:29:59;;;;;;;3.90;0.68;;;14.10;69.70;;;;;;4996155;28;20045;-61
2022/04/08 00:32:26;;;;;;;2.50;0.70;;;14.10;69.70;;;;;;4996021;28;20026;-67
2022/04/08 00:34:52;;;;;;;5.30;1.08;;;14.10;69.70;;;;;;4996071;28;20435;-64
2022/04/08 00:37:18;;;;;;;5.57;1.05;;;14.00;69.90;;;;;;4995449;28;20034;-56
2022/04/08 00:39:44;;;;;;;2.63;0.60;;;14.00;69.80;;;;;;4995952;28;20026;-66
2022/04/08 00:42:13;;;;;;;5.72;1.05;;;13.90;69.80;;;;;;4995840;28;20034;-68
2022/04/08 00:44:38;;;;;;;4.25;1.10;;;14.00;69.70;;;;;;4995188;28;20014;-67
2022/04/08 00:47:04;;;;;;;5.32;1.52;;;13.90;69.70;;;;;;4995698;28;20044;-68
2022/04/08 00:49:31;;;;;;;4.85;0.82;;;13.90;70.20;;;;;;4995688;28;20029;-67
2022/04/08 00:52:00;;;;;;;4.28;1.10;;;13.90;69.60;;;;;;4995659;28;20038;-57
2022/04/08 00:54:26;;;;;;;3.58;0.95;;;13.90;69.90;;;;;;4995907;28;20026;-52
2022/04/08 00:56:52;;;;;;;4.80;1.00;;;13.80;69.80;;;;;;4995749;28;20039;-64
2022/04/08 00:59:18;;;;;;;5.68;0.90;;;13.80;70.10;;;;;;4995450;28;20018;-67
2022/04/08 01:01:44;;;;;;;3.58;0.90;;;13.80;70.00;;;;;;4995482;28;20034;-63
2022/04/08 01:04:10;;;;;;;5.05;1.20;;;13.80;70.00;;;;;;4995441;28;20026;-60
2022/04/08 01:06:36;;;;;;;5.13;1.23;;;13.80;70.00;;;;;;4995349;28;20029;-57
2022/04/08 01:09:01;;;;;;;3.25;0.90;;;13.70;70.00;;;;;;4995291;28;20090;-66
2022/04/08 01:11:27;;;;;;;4.10;1.05;;;13.70;70.30;;;;;;4995327;28;20073;-67
2022/04/08 01:13:53;;;;;;;5.10;1.20;;;13.70;70.60;;;;;;4995347;28;20383;-67
2022/04/08 01:16:22;;;;;;;4.05;1.00;;;13.70;70.60;;;;;;4995257;28;20412;-67
2022/04/08 01:18:48;;;;;;;3.53;0.95;;;13.60;70.60;;;;;;4994905;28;20411;-67
2022/04/08 01:21:13;;;;;;;4.78;1.30;;;13.60;70.70;;;;;;4995206;28;20101;-67
2022/04/08 01:23:41;;;;;;;3.38;0.90;;;13.60;70.80;;;;;;4995098;28;20141;-53
2022/04/08 01:26:08;;;;;;;6.78;1.40;;;13.60;70.70;;;;;;4995014;28;20033;-65
2022/04/08 01:28:34;;;;;;;8.48;1.50;;;13.60;71.10;;;;;;4995042;28;20068;-55
2022/04/08 01:31:00;;;;;;;6.07;1.55;;;13.50;71.10;;;;;;4995007;28;20018;-67
2022/04/08 01:33:26;;;;;;;8.65;2.65;;;13.50;71.40;;;;;;4994695;28;20041;-55
2022/04/08 01:35:52;;;;;;;8.57;2.72;;;13.50;71.40;;;;;;4994714;28;20015;-52
2022/04/08 01:38:17;;;;;;;8.32;2.45;;;13.50;71.30;;;;;;4994926;28;20574;-66
2022/04/08 01:40:43;;;;;;;6.85;2.42;;;13.40;71.20;;;;;;4994474;28;20035;-65
2022/04/08 01:43:08;;;;;;;8.07;2.47;;;13.40;71.30;;;;;;4994567;28;20053;-67
2022/04/08 01:45:34;;;;;;;7.15;2.58;;;13.40;71.30;;;;;;4994779;28;20050;-64
2022/04/08 01:47:59;;;;;;;4.30;2.00;;;13.40;71.30;;;;;;4994996;28;20105;-67
2022/04/08 01:50:25;;;;;;;4.82;1.95;;;13.40;71.40;;;;;;4987716;28;20030;-53
2022/04/08 01:52:51;;;;;;;6.82;2.33;;;13.30;71.30;;;;;;4992703;28;20077;-55
2022/04/08 01:55:16;;;;;;;5.88;2.00;;;13.30;71.30;;;;;;4993379;28;20029;-51
2022/04/08 01:57:42;;;;;;;7.22;2.10;;;13.30;71.30;;;;;;4994112;28;20038;-65
2022/04/08 02:00:09;;;;;;;8.15;2.20;;;13.20;71.30;;;;;;4994115;28;20058;-55
2022/04/08 02:02:35;;;;;;;4.82;2.08;;;13.20;71.30;;;;;;4994463;28;20026;-64
2022/04/08 02:05:02;;;;;;;5.18;1.83;;;13.20;71.40;;;;;;4993992;28;20014;-61
2022/04/08 02:07:28;;;;;;;4.85;1.90;;;13.20;71.50;;;;;;4994497;28;20054;-66
2022/04/08 02:09:54;;;;;;;4.93;2.15;;;13.20;71.60;;;;;;4994154;28;20056;-67
2022/04/08 02:12:20;;;;;;;5.32;1.77;;;13.10;72.10;;;;;;4994451;28;20023;-63
2022/04/08 02:14:45;;;;;;;3.70;2.22;;;13.20;71.40;;;;;;4994111;28;20468;-54
2022/04/08 02:17:11;;;;;;;5.18;1.67;;;13.10;71.60;;;;;;4994108;28;20166;-68
2022/04/08 02:19:37;;;;;;;4.45;1.80;;;13.10;71.50;;;;;;4993595;28;20034;-64
2022/04/08 02:22:03;;;;;;;3.13;2.08;;;13.10;71.50;;;;;;4994484;28;20436;-52
2022/04/08 02:24:29;;;;;;;3.45;1.40;;;13.10;71.90;;;;;;4994020;28;20019;-66
2022/04/08 02:26:55;;;;;;;3.33;1.52;;;13.00;71.90;;;;;;4993845;28;20037;-54
2022/04/08 02:29:21;;;;;;;3.50;1.42;;;12.90;71.90;;;;;;4993984;28;20026;-67
2022/04/08 02:31:47;;;;;;;7.82;1.42;;;13.00;72.00;;;;;;4993929;28;20022;-63
2022/04/08 02:34:13;;;;;;;5.50;1.70;;;12.90;72.00;;;;;;4993719;28;20038;-67
2022/04/08 02:36:38;;;;;;;3.72;1.40;;;12.90;72.20;;;;;;4993746;28;20034;-56
2022/04/08 02:39:04;;;;;;;4.60;1.20;;;12.80;72.10;;;;;;4993983;28;20023;-57
2022/04/08 02:41:30;;;;;;;3.97;1.50;;;12.80;72.40;;;;;;4976359;28;20384;-55
2022/04/08 02:43:56;;;;;;;5.68;1.48;;;12.80;72.40;;;;;;4993852;28;20019;-54
2022/04/08 02:46:21;;;;;;;5.00;1.58;;;12.80;72.30;;;;;;4993577;28;20037;-58
2022/04/08 02:48:47;;;;;;;3.78;1.45;;;12.80;72.60;;;;;;4993185;28;20034;-59
2022/04/08 02:51:12;;;;;;;4.68;1.35;;;12.80;72.50;;;;;;4993806;28;20026;-53
2022/04/08 02:53:38;;;;;;;2.08;1.13;;;12.80;72.60;;;;;;4993732;28;20037;-55
2022/04/08 02:56:03;;;;;;;6.68;2.13;;;12.70;72.90;;;;;;4993690;28;20026;-55
2022/04/08 02:58:29;;;;;;;3.33;1.40;;;12.60;73.00;;;;;;4993492;28;20030;-54
2022/04/08 03:00:58;;;;;;;3.70;1.60;;;12.60;72.90;;;;;;4993404;28;20435;-54
2022/04/08 03:03:26;;;;;;;4.47;1.52;;;12.60;72.90;;;;;;4993380;28;20031;-53
2022/04/08 03:05:51;;;;;;;4.05;1.90;;;12.60;73.10;;;;;;4993455;28;20106;-53
2022/04/08 03:08:17;;;;;;;4.13;1.35;;;12.60;73.30;;;;;;4994422;28;20045;-56
2022/04/08 03:10:43;;;;;;;4.95;1.55;;;12.50;73.40;;;;;;4997414;28;20057;-67
2022/04/08 03:13:09;;;;;;;4.70;1.50;;;12.50;73.50;;;;;;4997577;28;20388;-53
2022/04/08 03:15:34;;;;;;;5.97;2.20;;;12.50;73.50;;;;;;4997511;28;20027;-54
2022/04/08 03:18:00;;;;;;;4.95;1.60;;;12.50;73.60;;;;;;4997181;28;20046;-52
2022/04/08 03:20:26;;;;;;;4.75;2.08;;;12.50;73.40;;;;;;4997214;28;20097;-52
2022/04/08 03:22:51;;;;;;;5.68;1.58;;;12.50;73.40;;;;;;4997444;28;20035;-53
2022/04/08 03:25:17;;;;;;;2.53;1.80;;;12.40;73.50;;;;;;4997253;28;20023;-56
2022/04/08 03:27:42;;;;;;;6.15;2.15;;;12.40;73.50;;;;;;4997328;28;20032;-54
2022/04/08 03:30:08;;;;;;;6.20;2.08;;;12.40;73.70;;;;;;4997283;28;20046;-54
2022/04/08 03:32:34;;;;;;;10.45;2.10;;;12.30;73.90;;;;;;4996882;28;20083;-53
2022/04/08 03:35:00;;;;;;;7.60;1.80;;;12.30;73.90;;;;;;4997230;28;20030;-54
2022/04/08 03:37:26;;;;;;;5.03;2.10;;;12.40;73.80;;;;;;4996796;28;20084;-54
2022/04/08 03:39:53;;;;;;;3.35;1.92;;;12.40;73.80;;;;;;4997122;28;20057;-54
2022/04/08 03:42:19;;;;;;;6.75;2.83;;;12.30;73.90;;;;;;4996943;28;20430;-54
2022/04/08 03:44:44;;;;;;;6.28;2.20;;;12.30;74.00;;;;;;4997212;28;20468;-53
2022/04/08 03:47:10;;;;;;;5.78;2.50;;;12.30;74.00;;;;;;4996882;28;20483;-54
2022/04/08 03:49:36;;;;;;;5.15;2.22;;;12.30;74.20;;;;;;4996858;28;20107;-53
2022/04/08 03:52:04;;;;;;;4.97;2.45;;;12.20;74.20;;;;;;4996841;28;20057;-53
2022/04/08 03:54:30;;;;;;;6.20;2.65;;;12.20;74.30;;;;;;4996937;28;20388;-55
2022/04/08 03:56:56;;;;;;;6.13;2.63;;;12.20;74.50;;;;;;4996545;28;20487;-52
2022/04/08 03:59:22;;;;;;;5.00;2.40;;;12.20;74.50;;;;;;4996475;28;20023;-55
2022/04/08 04:01:49;;;;;;;3.55;2.40;;;12.20;74.50;;;;;;4996747;28;20026;-54
2022/04/08 04:04:14;;;;;;;8.82;3.05;;;12.20;74.50;;;;;;4996891;28;20109;-55
2022/04/08 04:06:40;;;;;;;6.43;3.10;;;12.10;74.70;;;;;;4996759;28;20074;-54
2022/04/08 04:09:06;;;;;;;5.03;2.83;;;12.10;74.80;;;;;;4996586;28;20491;-55
2022/04/08 04:11:33;;;;;;;4.95;2.85;;;12.10;75.00;;;;;;4996481;28;20468;-55
2022/04/08 04:13:59;;;;;;;6.50;2.45;;;12.00;74.90;;;;;;4996063;28;20049;-53
2022/04/08 04:16:25;;;;;;;5.40;2.30;;;11.90;73.30;;;;;;4996556;28;20392;-55
2022/04/08 04:18:51;;;;;;;4.28;2.75;;;11.80;72.60;;;;;;4996236;28;20034;-52
2022/04/08 04:21:17;;;;;;;8.65;2.97;;;11.80;72.70;;;;;;4996368;28;20436;-56
2022/04/08 04:23:44;;;;;;;5.30;2.50;;;11.80;73.20;;;;;;4996064;28;20508;-62
2022/04/08 04:26:09;;;;;;;4.65;2.40;;;11.70;73.40;;;;;;4996338;28;20097;-54
2022/04/08 04:28:35;;;;;;;8.70;2.80;;;11.70;73.60;;;;;;4995818;28;20081;-54
2022/04/08 04:31:03;;;;;;;4.95;2.75;;;11.60;74.20;;;;;;4996294;28;20101;-65
2022/04/08 04:33:29;;;;;;;5.35;2.67;;;11.60;74.60;;;;;;4996124;28;20046;-57
2022/04/08 04:35:54;;;;;;;5.63;2.47;;;11.60;74.80;;;;;;4996108;28;20365;-67
2022/04/08 04:38:20;;;;;;;5.38;2.47;;;11.50;75.00;;;;;;4995734;28;20045;-67
2022/04/08 04:40:46;;;;;;;4.85;2.55;;;11.50;75.20;;;;;;4995886;28;20011;-67
2022/04/08 04:43:11;;;;;;;4.70;2.28;;;11.50;75.40;;;;;;4995443;28;20035;-63
2022/04/08 04:45:39;;;;;;;4.78;2.65;;;11.50;75.90;;;;;;4995986;28;20542;-65
2022/04/08 04:48:05;;;;;;;4.63;3.00;;;11.50;76.10;;;;;;4995563;28;20026;-57
2022/04/08 04:50:31;;;;;;;6.13;2.67;;;11.40;76.10;;;;;;4995776;28;20537;-60
2022/04/08 04:52:56;;;;;;;3.25;2.20;;;11.40;76.40;;;;;;4995407;28;20018;-55
2022/04/08 04:55:22;;;;;;;9.35;3.08;;;11.40;76.80;;;;;;4995793;28;20157;-54
2022/04/08 04:57:47;;;;;;;6.63;2.90;;;11.40;76.80;;;;;;4995173;28;20034;-58
2022/04/08 05:00:13;;;;;;;4.22;2.42;;;11.30;76.90;;;;;;4994824;28;20047;-55
2022/04/08 05:02:39;;;;;;;6.15;2.50;;;11.30;77.00;;;;;;4989729;28;20061;-55
2022/04/08 05:05:06;;;;;;;6.25;2.90;;;11.30;77.10;;;;;;4994467;28;20026;-54
2022/04/08 05:07:32;;;;;;;3.15;2.20;;;11.30;77.30;;;;;;4993432;28;20121;-55
2022/04/08 05:09:57;;;;;;;5.25;2.50;;;11.30;77.50;;;;;;4994887;28;20097;-55
2022/04/08 05:12:23;;;;;;;4.80;3.00;;;11.30;77.80;;;;;;4994643;28;20022;-60
2022/04/08 05:14:48;;;;;;;5.97;2.58;;;11.20;77.60;;;;;;4995093;28;20026;-54
2022/04/08 05:17:14;;;;;;;7.00;3.10;;;11.20;77.70;;;;;;4994957;28;20138;-54
2022/04/08 05:19:39;;;;;;;5.75;2.80;;;11.20;77.70;;;;;;4995204;28;20081;-64
2022/04/08 05:22:05;;;;;;;3.08;2.13;;;11.20;77.80;;;;;;4995229;28;20038;-64
2022/04/08 05:24:30;;;;;;;5.47;2.83;;;11.20;77.90;;;;;;4995177;28;20030;-55
2022/04/08 05:26:56;;;;;;;7.10;4.00;;;11.20;78.00;;;;;;4994779;28;20080;-54
2022/04/08 05:29:21;;;;;;;5.82;3.42;;;11.20;78.10;;;;;;4995040;28;20018;-55
2022/04/08 05:31:47;;;;;;;6.93;2.92;;;11.10;78.00;;;;;;4994642;28;20484;-57
2022/04/08 05:34:13;;;;;;;4.75;3.00;;;11.10;78.20;;;;;;4995022;28;20542;-61
2022/04/08 05:36:39;;;;;;;6.75;2.78;;;11.10;78.30;;;;;;4994945;28;20026;-64
2022/04/08 05:39:04;;;;;;;6.43;3.03;;;11.10;78.30;;;;;;4994730;28;20495;-67
2022/04/08 05:41:30;;;;;;;7.05;2.78;;;11.10;78.40;;;;;;4994403;28;20019;-61
2022/04/08 05:43:55;;;;;;;8.55;3.20;;;11.10;78.60;;;;;;4994642;28;20033;-59
2022/04/08 05:46:21;;;;;;;9.73;3.40;;;11.00;78.70;;;;;;4994842;28;20076;-64
2022/04/08 05:48:46;;;;;;;6.85;3.22;;;11.00;78.70;;;;;;4994565;28;20030;-64
2022/04/08 05:51:12;;;;;;;6.85;2.88;;;11.10;78.90;;;;;;4994527;28;20161;-58
2022/04/08 05:53:37;;;;;;;4.63;2.83;;;11.10;79.00;;;;;;4994435;28;20077;-65
2022/04/08 05:56:03;;;;;;;5.53;2.60;;;11.10;79.20;;;;;;4994143;28;20479;-55
2022/04/08 05:58:30;;;;;;;7.03;2.97;;;11.10;79.30;;;;;;4994538;28;20030;-53
2022/04/08 06:00:55;;;;;;;9.43;3.15;;;11.10;79.30;;;;;;4994389;28;20471;-60
2022/04/08 06:03:21;;;;;;;7.78;3.08;;;11.10;79.60;;;;;;4994554;28;20041;-56
2022/04/08 06:05:47;;;;;;;7.53;3.15;;;11.10;80.50;;;;;;4994372;28;20077;-53
2022/04/08 06:08:12;;;;;;;2.67;1.30;;;11.10;80.00;;;;;;4994266;28;20022;-55
2022/04/08 06:10:38;;;;;;;2.67;0.95;;;11.20;82.70;;;;;;4994010;28;20034;-57
2022/04/08 06:13:04;;;;;;;3.33;1.23;;;11.20;83.20;;;;;;4990122;28;20468;-59
2022/04/08 06:15:31;;;;;;;12.82;1.98;;;11.30;83.60;;;;;;4986337;28;20030;-63
2022/04/08 06:17:57;;;;;;;4.70;1.60;;;11.50;83.30;;;;;;4989997;28;20030;-56
2022/04/08 06:20:24;;;;;;;4.95;1.58;;;11.60;83.10;;;;;;4990431;28;20038;-65
2022/04/08 06:22:50;;;;;;;4.32;2.90;;;11.70;82.80;;;;;;4990810;28;20033;-57
2022/04/08 06:25:21;;;;;;;6.95;2.65;;;11.70;81.40;;;;;;4974139;28;20114;-65
2022/04/08 06:28:02;;;;;;;7.22;2.33;;;11.70;81.30;;;;;;4992580;28;20111;-60
2022/04/08 06:30:29;;;;;;;5.23;2.00;;;11.70;80.30;;;;;;4989372;28;20077;-65
2022/04/08 06:32:55;;;;;;;6.90;2.03;;;11.70;80.90;;;;;;4985517;28;20025;-65
2022/04/08 06:35:21;;;;;;;7.32;1.80;;;11.70;81.60;;;;;;4991431;28;20026;-66
2022/04/08 06:37:47;;;;;;;9.82;2.58;;;11.80;82.50;;;;;;4987666;28;20046;-65
2022/04/08 06:40:13;;;;;;;6.65;2.67;;;11.80;81.50;;;;;;4979530;28;20050;-65
2022/04/08 06:42:38;;;;;;;7.28;3.10;;;11.80;81.00;;;;;;4982072;28;20030;-64
2022/04/08 06:45:06;;;;;;;5.32;2.90;;;11.80;80.10;;;;;;4984508;28;20026;-65
2022/04/08 06:47:31;;;;;;;6.18;2.50;;;11.70;79.20;;;;;;4988374;28;20022;-62
2022/04/08 06:49:57;;;;;;;6.20;2.17;;;11.80;80.30;;;;;;4983942;28;20082;-54
2022/04/08 06:52:23;;;;;;;11.18;2.85;;;11.80;81.30;;;;;;4984745;28;20526;-66
2022/04/08 06:54:48;;;;;;;5.25;1.55;;;11.80;81.50;;;;;;4979402;28;20062;-61
2022/04/08 06:57:14;;;;;;;9.70;2.40;;;11.80;82.40;;;;;;4983022;28;20038;-58
2022/04/08 06:59:41;;;;;;;5.15;1.58;;;11.80;81.90;;;;;;4984755;28;20078;-57
2022/04/08 07:02:07;;;;;;;8.57;2.38;;;11.80;81.90;;;;;;4988353;28;20109;-65
2022/04/08 07:04:33;;;;;;;11.93;2.30;;;11.80;81.60;;;;;;4992124;28;20380;-56
2022/04/08 07:06:58;;;;;;;5.47;1.85;;;11.80;81.00;;;;;;4992690;28;20030;-60
2022/04/08 07:09:24;;;;;;;11.02;2.30;;;11.80;81.90;;;;;;4992747;28;20029;-65
2022/04/08 07:11:50;;;;;;;5.10;1.50;;;11.80;82.10;;;;;;4991116;28;20022;-56
2022/04/08 07:14:15;;;;;;;9.88;2.08;;;11.80;82.80;;;;;;4989687;28;20019;-56
2022/04/08 07:16:43;;;;;;;6.30;2.95;;;11.80;82.80;;;;;;4992065;28;20549;-62
2022/04/08 07:19:10;;;;;;;8.88;2.90;;;11.90;80.30;;;;;;4992982;28;20038;-64
2022/04/08 07:21:36;;;;;;;7.90;2.38;;;11.90;79.30;;;;;;4991962;28;20026;-62
2022/04/08 07:24:02;;;;;;;11.98;2.40;;;11.80;79.80;;;;;;4992389;28;20022;-62
2022/04/08 07:26:28;;;;;;;8.00;2.30;;;11.90;81.50;;;;;;4992663;28;20019;-62
2022/04/08 07:28:55;;;;;;;6.15;2.55;;;11.80;79.60;;;;;;4984906;28;20085;-63
2022/04/08 07:31:21;;;;;;;9.10;3.00;;;11.80;79.80;;;;;;4985028;28;20027;-56
2022/04/08 07:33:46;;;;;;;9.35;3.20;;;11.80;79.80;;;;;;4991012;28;20547;-62
2022/04/08 07:36:12;;;;;;;8.10;2.92;;;11.80;79.30;;;;;;4992504;28;20395;-54
2022/04/08 07:38:37;;;;;;;8.88;3.88;;;11.80;78.50;;;;;;4990508;28;20153;-64
2022/04/08 07:41:03;;;;;;;8.25;3.38;;;11.80;78.20;;;;;;4992551;28;20073;-59
2022/04/08 07:43:28;;;;;;;6.13;2.80;;;11.90;78.00;;;;;;4989348;28;20034;-53
2022/04/08 07:45:54;;;;;;;6.60;3.50;;;11.90;78.00;;;;;;4982425;28;20030;-62
2022/04/08 07:48:20;;;;;;;7.50;3.13;;;11.80;78.00;;;;;;4973150;28;20027;-60
2022/04/08 07:50:46;;;;;;;7.95;2.97;;;11.80;78.00;;;;;;4989490;28;20023;-63
2022/04/08 07:53:12;;;;;;;10.23;3.08;;;11.80;78.30;;;;;;4981261;28;20034;-59
2022/04/08 07:55:37;;;;;;;6.53;2.80;;;11.80;78.70;;;;;;4977895;28;20031;-61
2022/04/08 07:58:04;;;;;;;6.90;2.50;;;11.70;79.30;;;;;;4996013;28;20054;-55
2022/04/08 08:00:31;;;;;;;6.32;1.98;;;11.80;79.80;;;;;;4981375;28;20030;-59
2022/04/08 08:02:58;;;;;;;9.77;2.30;;;11.80;80.40;;;;;;4990818;28;20052;-57
2022/04/08 08:05:24;;;;;;;6.78;1.92;;;11.80;80.00;;;;;;4995759;28;20050;-57
2022/04/08 08:07:55;;;;;;;14.05;2.78;;;11.80;80.40;;;;;;4986302;28;20098;-53
2022/04/08 08:10:31;;;;;;;8.50;2.42;;;11.90;80.10;;;;;;4981223;28;20023;-54
2022/04/08 08:13:00;;;;;;;4.90;2.45;;;11.90;79.60;;;;;;4977293;28;20038;-61
2022/04/08 08:15:26;;;;;;;6.95;2.28;;;12.00;80.60;;;;;;4986102;28;20496;-57
2022/04/08 08:17:52;;;;;;;5.93;1.77;;;11.90;79.90;;;;;;4990409;28;20046;-55
2022/04/08 08:20:20;;;;;;;6.85;2.53;;;12.00;82.80;;;;;;4993275;28;20558;-56
2022/04/08 08:22:47;;;;;;;9.27;2.00;;;12.20;82.70;;;;;;4992691;28;20388;-54
2022/04/08 08:25:13;;;;;;;5.20;1.58;;;12.30;82.80;;;;;;4977033;28;20537;-66
2022/04/08 08:27:40;;;;;;;5.88;1.90;;;12.30;82.40;;;;;;4994819;28;20080;-64
2022/04/08 08:30:08;;;;;;;7.82;2.53;;;12.40;81.30;;;;;;4994438;28;20109;-64
2022/04/08 08:32:33;;;;;;;4.32;1.58;;;12.50;81.40;;;;;;4995698;28;20124;-65
2022/04/08 08:34:59;;;;;;;5.32;1.60;;;12.60;82.40;;;;;;4995285;28;20050;-65
2022/04/08 08:37:24;;;;;;;9.38;2.50;;;12.60;81.80;;;;;;4993545;28;20113;-58
2022/04/08 08:39:52;;;;;;;10.43;1.98;;;12.70;81.00;;;;;;4995641;28;20058;-62
2022/04/08 08:42:18;;;;;;;5.43;1.75;;;12.70;80.50;;;;;;4995832;28;20026;-65
2022/04/08 08:44:44;;;;;;;8.68;2.42;;;12.80;80.80;;;;;;4995387;28;20019;-60
2022/04/08 08:47:12;;;;;;;5.80;1.58;;;12.80;81.00;;;;;;4995932;28;20030;-57
2022/04/08 08:49:38;;;;;;;6.47;1.60;;;12.90;81.50;;;;;;4993890;28;20033;-56
2022/04/08 08:52:07;;;;;;;6.60;2.35;;;13.00;81.30;;;;;;4994033;28;20025;-61
2022/04/08 08:54:34;;;;;;;10.02;1.77;;;13.00;79.40;;;;;;4994774;28;20109;-63
2022/04/08 08:57:01;;;;;;;7.22;1.20;;;13.00;81.00;;;;;;4995269;28;20085;-58
2022/04/08 08:59:28;;;;;;;7.22;1.40;;;13.10;81.10;;;;;;4991588;28;20499;-65
2022/04/08 09:02:01;;;;;;;6.00;1.60;;;13.10;80.90;;;;;;4988346;28;20027;-63
2022/04/08 09:04:26;;;;;;;5.13;1.35;;;13.20;80.10;;;;;;4985274;28;20085;-57
2022/04/08 09:06:52;;;;;;;5.68;1.83;;;13.10;80.10;;;;;;5005419;28;20030;-59
2022/04/08 09:09:29;;;;;;;7.20;1.30;;;13.10;80.30;;;;;;5013974;28;20377;-61
2022/04/08 09:11:54;;;;;;;5.10;1.30;;;13.20;80.70;;;;;;4986949;28;20023;-51
2022/04/08 09:14:26;;;;;;;5.63;1.10;;;13.20;80.90;;;;;;4995033;28;20060;-59
2022/04/08 09:17:00;;;;;;;3.70;1.25;;;13.20;80.90;;;;;;4995342;28;20062;-55
2022/04/08 09:19:30;;;;;;;3.40;1.27;;;13.30;80.70;;;;;;4975281;28;20038;-61
2022/04/08 09:21:56;;;;;;;5.55;1.65;;;13.30;80.50;;;;;;4975796;28;20491;-64
2022/04/08 09:24:23;;;;;;;7.75;1.63;;;13.30;80.30;;;;;;4975342;28;20054;-53
2022/04/08 09:26:52;;;;;;;6.00;2.00;;;13.30;78.90;;;;;;4980308;28;20048;-52
2022/04/08 09:29:23;;;;;;;6.53;2.10;;;13.30;79.10;;;;;;4989525;28;20169;-56
2022/04/08 09:31:50;;;;;;;6.97;1.38;;;13.30;77.20;;;;;;4991321;28;20034;-56
2022/04/08 09:34:16;;;;;;;7.28;2.58;;;13.20;78.90;;;;;;4977813;28;20110;-71
2022/04/08 09:36:43;;;;;;;7.72;1.90;;;13.20;78.30;;;;;;4981195;28;20046;-56
2022/04/08 09:39:10;;;;;;;7.38;1.55;;;13.20;79.40;;;;;;4992653;28;20033;-52
2022/04/08 09:41:48;;;;;;;8.60;2.17;;;13.20;79.20;;;;;;4983626;28;20113;-62
2022/04/08 09:44:26;;;;;;;9.20;2.08;;;13.20;77.20;;;;;;4987339;28;20050;-60
2022/04/08 09:46:52;;;;;;;7.20;1.83;;;13.20;77.60;;;;;;4987205;28;20081;-56
2022/04/08 09:49:17;;;;;;;7.82;1.45;;;13.20;78.50;;;;;;4986599;28;20026;-56
2022/04/08 09:51:44;;;;;;;9.55;1.70;;;13.20;78.40;;;;;;4984234;28;20031;-53
2022/04/08 09:54:16;;;;;;;6.65;1.83;;;13.20;78.80;;;;;;4985830;28;20037;-53
2022/04/08 09:56:44;;;;;;;8.68;2.75;;;13.20;78.70;;;;;;4976730;28;20480;-67
2022/04/08 09:59:20;;;;;;;4.95;1.83;;;13.30;77.90;;;;;;4987696;28;20026;-61
2022/04/08 10:01:47;;;;;;;11.13;2.00;;;13.30;77.40;;;;;;4977874;28;20448;-66
2022/04/08 10:04:13;;;;;;;9.85;2.67;;;13.30;77.10;;;;;;4984308;28;20034;-53
2022/04/08 10:06:41;;;;;;;10.07;2.53;;;13.30;74.80;;;;;;4988714;28;20041;-68
2022/04/08 10:09:10;;;;;;;5.88;2.20;;;13.30;71.20;;;;;;4990709;28;20065;-67
2022/04/08 10:11:50;;;;;;;7.85;2.47;;;13.30;70.20;;;;;;4987921;28;20034;-55
2022/04/08 10:14:43;;;;;;;7.93;2.78;;;13.20;70.90;;;;;;4983844;28;20064;-58
2022/04/08 10:17:09;;;;;;;9.32;3.40;;;13.20;71.10;;;;;;4983952;28;20435;-54
2022/04/08 10:19:35;;;;;;;7.18;3.03;;;13.20;70.20;;;;;;4986681;28;20462;-66
2022/04/08 10:22:01;;;;;;;5.50;2.20;;;13.20;70.70;;;;;;4984783;28;20043;-60
2022/04/08 10:24:29;;;;;;;7.03;2.17;;;13.20;71.50;;;;;;4978218;28;20030;-54
2022/04/08 10:27:00;;;;;;;7.10;1.95;;;13.20;72.80;;;;;;4983712;28;20034;-60
2022/04/08 10:29:26;;;;;;;6.13;1.90;;;13.30;72.30;;;;;;4985311;28;20027;-66
2022/04/08 10:32:00;;;;;;;8.63;3.00;;;13.30;71.10;;;;;;4983137;28;20038;-68
2022/04/08 10:34:26;;;;;;;11.75;3.63;;;13.30;70.80;;;;;;4986693;28;20028;-61
2022/04/08 10:36:52;;;;;;;11.40;3.35;;;13.30;69.90;;;;;;4996177;28;20030;-60
2022/04/08 10:39:22;;;;;;;7.15;2.25;;;13.30;69.60;;;;;;4989578;28;20384;-61
2022/04/08 10:42:00;;;;;;;8.02;3.50;;;13.30;70.70;;;;;;4982796;28;20034;-65
2022/04/08 10:44:41;;;;;;;5.88;2.88;;;13.30;70.40;;;;;;4985266;28;20093;-59
2022/04/08 10:47:15;;;;;;;6.70;2.53;;;13.40;69.60;;;;;;4980089;28;20730;-62
2022/04/08 10:49:56;;;;;;;5.97;2.60;;;13.30;70.50;;;;;;4966550;28;20455;-57
2022/04/08 10:52:25;;;;;;;4.88;2.17;;;13.40;68.70;;;;;;4987262;28;20041;-58
2022/04/08 10:55:02;;;;;;;6.43;2.08;;;13.30;69.90;;;;;;4974375;28;20065;-65
2022/04/08 10:57:42;;;;;;;7.13;3.53;;;13.40;69.20;;;;;;4983510;28;20121;-73
2022/04/08 11:00:13;;;;;;;7.80;4.07;;;13.40;69.20;;;;;;4976288;28;20385;-58
2022/04/08 11:02:41;;;;;;;7.35;3.15;;;13.40;68.40;;;;;;5003544;28;20435;-61
2022/04/08 11:05:09;;;;;;;7.15;2.90;;;13.40;68.40;;;;;;4982247;28;20034;-64
2022/04/08 11:07:38;;;;;;;8.15;2.30;;;13.50;68.20;;;;;;4984480;28;20026;-67
2022/04/08 11:10:04;;;;;;;8.40;2.38;;;13.50;69.30;;;;;;4983168;28;20026;-56
2022/04/08 11:12:31;;;;;;;9.95;2.42;;;13.50;68.50;;;;;;4985985;28;20078;-58
2022/04/08 11:15:02;;;;;;;7.28;2.25;;;13.50;67.90;;;;;;4980159;28;20078;-61
2022/04/08 11:17:37;;;;;;;8.90;1.98;;;13.40;68.30;;;;;;4982238;28;20046;-56
2022/04/08 11:20:09;;;;;;;8.35;1.63;;;13.50;72.20;;;;;;4987256;28;20046;-55
2022/04/08 11:22:47;;;;;;;5.90;1.98;;;13.50;69.10;;;;;;4981333;28;20034;-62
2022/04/08 11:25:39;;;;;;;6.88;2.28;;;13.50;68.90;;;;;;4986859;28;20468;-53
2022/04/08 11:28:07;;;;;;;7.47;1.43;;;13.50;66.70;;;;;;4985726;28;20132;-55
2022/04/08 11:30:34;;;;;;;6.32;1.35;;;13.60;65.80;;;;;;4990518;28;20503;-53
2022/04/08 11:33:11;;;;;;;7.10;2.00;;;13.60;65.10;;;;;;4994786;28;20491;-57
2022/04/08 11:35:38;;;;;;;8.13;1.60;;;13.60;65.30;;;;;;4983189;28;20026;-57
2022/04/08 11:38:15;;;;;;;7.45;1.35;;;13.60;66.60;;;;;;4993063;28;20110;-61
2022/04/08 11:40:40;;;;;;;8.48;2.20;;;13.60;65.90;;;;;;4990040;28;20066;-66
2022/04/08 11:43:08;;;;;;;6.47;1.42;;;13.60;65.70;;;;;;4990195;28;20478;-55
2022/04/08 11:45:33;;;;;;;4.82;1.33;;;13.70;64.90;;;;;;4987987;28;20115;-54
2022/04/08 11:47:59;;;;;;;6.38;1.50;;;13.70;64.90;;;;;;4996522;28;20112;-61
2022/04/08 11:50:27;;;;;;;8.00;1.33;;;13.70;63.30;;;;;;4985261;28;20404;-65
2022/04/08 11:52:54;;;;;;;3.72;1.27;;;13.70;63.50;;;;;;4983461;28;20030;-65
2022/04/08 11:55:25;;;;;;;4.28;1.13;;;13.70;65.30;;;;;;4994537;28;20110;-61
2022/04/08 11:57:52;;;;;;;6.20;1.65;;;13.70;65.10;;;;;;4976649;28;20030;-63
2022/04/08 12:00:27;;;;;;;6.72;1.40;;;13.70;64.30;;;;;;4975292;28;20023;-57
2022/04/08 12:02:56;;;;;;;5.28;1.65;;;13.70;64.60;;;;;;4975753;28;20085;-65
2022/04/08 12:05:31;;;;;;;6.25;1.80;;;13.80;64.40;;;;;;4976561;28;20034;-59
2022/04/08 12:07:59;;;;;;;8.50;1.65;;;13.70;64.40;;;;;;5000006;28;20081;-54
2022/04/08 12:10:26;;;;;;;8.07;1.80;;;13.80;64.00;;;;;;4989163;28;20027;-53
2022/04/08 12:12:53;;;;;;;8.95;2.63;;;13.80;63.80;;;;;;4993745;28;20486;-55
2022/04/08 12:15:22;;;;;;;8.10;1.98;;;13.80;64.10;;;;;;4994531;28;20447;-61
2022/04/08 12:17:49;;;;;;;13.85;4.13;;;13.80;64.10;;;;;;4987364;28;20046;-53
2022/04/08 12:20:20;;;;;;;9.05;3.03;;;13.80;65.40;;;;;;4981754;28;20038;-58
2022/04/08 12:22:50;;;;;;;12.35;3.00;;;13.90;65.30;;;;;;4984735;28;20153;-62
2022/04/08 12:25:19;;;;;;;11.20;3.33;;;13.90;65.40;;;;;;4988765;28;20027;-61
2022/04/08 12:27:55;;;;;;;5.70;2.35;;;13.90;64.40;;;;;;4983634;28;20029;-56
2022/04/08 12:30:27;;;;;;;6.88;2.05;;;14.00;64.50;;;;;;4989085;28;20503;-63
2022/04/08 12:32:53;;;;;;;4.57;1.65;;;14.00;64.40;;;;;;4977165;28;20447;-63
2022/04/08 12:35:19;;;;;;;5.53;2.00;;;14.00;63.60;;;;;;4984384;28;20118;-62
2022/04/08 12:37:45;;;;;;;27.20;2.63;;;14.00;62.90;;;;;;4988319;28;20070;-63
2022/04/08 12:40:11;;;;;;;5.68;1.70;;;14.00;62.80;;;;;;4980523;28;20057;-55
2022/04/08 12:42:38;;;;;;;6.45;1.70;;;14.00;64.70;;;;;;4986206;28;20524;-63
2022/04/08 12:45:05;;;;;;;8.07;2.03;;;14.00;65.40;;;;;;4984180;28;20027;-54